createdAt,value
2023-04-28T00:00:25.142Z,20.38
2023-04-28T00:05:40.175Z,21.10
2023-04-28T00:08:16.753Z,21.30
2023-04-28T00:10:55.262Z,22.33
2023-04-28T00:13:31.982Z,19.98
2023-04-28T00:16:09.526Z,20.38
2023-04-28T00:18:52.761Z,19.73
2023-04-28T00:21:32.441Z,21.17
2023-04-28T00:24:08.877Z,21.58
2023-04-28T00:26:44.835Z,21.98
2023-04-28T00:29:21.353Z,23.60
2023-04-28T00:31:59.292Z,24.10
2023-04-28T00:34:40.119Z,22.15
2023-04-28T00:37:20.806Z,21.17
2023-04-28T00:40:00.487Z,21.45
2023-04-28T00:42:40.214Z,20.77
2023-04-28T00:45:21.784Z,21.70
2023-04-28T00:48:00.878Z,21.27
2023-04-28T00:50:38.062Z,21.25
2023-04-28T00:53:19.777Z,21.45
2023-04-28T00:55:57.528Z,21.60
2023-04-28T00:58:33.949Z,20.60
2023-04-28T01:01:11.849Z,20.75
2023-04-28T01:03:49.359Z,21.65
2023-04-28T01:06:28.986Z,20.57
2023-04-28T01:09:11.670Z,17.90
2023-04-28T01:11:46.460Z,19.35
2023-04-28T01:14:30.824Z,20.77
2023-04-28T01:17:05.575Z,21.08
2023-04-28T01:19:49.885Z,19.65
2023-04-28T01:22:26.477Z,21.05
2023-04-28T01:25:05.471Z,19.55
2023-04-28T01:27:45.488Z,19.48
2023-04-28T01:30:24.930Z,20.10
2023-04-28T01:33:01.372Z,19.45
2023-04-28T01:35:38.933Z,17.45
2023-04-28T01:38:17.290Z,18.02
2023-04-28T01:40:59.233Z,18.50
2023-04-28T01:43:36.993Z,18.17
2023-04-28T01:46:10.953Z,18.83
2023-04-28T01:48:47.834Z,18.15
2023-04-28T01:51:24.576Z,18.63
2023-04-28T01:54:01.837Z,19.30
2023-04-28T01:56:41.983Z,17.63
2023-04-28T01:59:25.635Z,18.08
2023-04-28T02:02:01.349Z,18.60
2023-04-28T02:04:38.847Z,17.33
2023-04-28T02:07:14.421Z,19.10
2023-04-28T02:09:55.937Z,17.88
2023-04-28T02:12:37.569Z,19.27
2023-04-28T02:15:17.532Z,19.58
2023-04-28T02:17:53.482Z,18.58
2023-04-28T02:20:33.408Z,20.02
2023-04-28T02:23:14.486Z,18.15
2023-04-28T02:25:51.760Z,18.08
2023-04-28T02:28:34.455Z,16.33
2023-04-28T02:31:17.464Z,15.63
2023-04-28T02:33:55.197Z,15.77
2023-04-28T02:36:35.370Z,17.00
2023-04-28T02:39:15.954Z,16.15
2023-04-28T02:41:52.506Z,16.75
2023-04-28T02:44:34.316Z,15.88
2023-04-28T02:47:08.890Z,16.15
2023-04-28T02:49:45.372Z,15.60
2023-04-28T02:52:24.206Z,16.23
2023-04-28T02:55:07.099Z,16.30
2023-04-28T02:57:44.468Z,15.30
2023-04-28T03:00:25.603Z,14.00
2023-04-28T03:03:03.153Z,15.13
2023-04-28T03:05:39.262Z,14.25
2023-04-28T03:08:19.517Z,15.15
2023-04-28T03:10:57.538Z,16.40
2023-04-28T03:13:33.500Z,13.82
2023-04-28T03:16:17.689Z,14.45
2023-04-28T03:18:54.169Z,13.70
2023-04-28T03:21:33.015Z,12.77
2023-04-28T03:24:11.167Z,14.45
2023-04-28T03:26:48.750Z,12.55
2023-04-28T03:29:26.180Z,13.27
2023-04-28T03:32:07.942Z,15.32
2023-04-28T03:34:45.886Z,13.45
2023-04-28T03:37:25.309Z,12.40
2023-04-28T03:40:05.516Z,12.35
2023-04-28T03:43:04.423Z,13.75
2023-04-28T03:45:47.365Z,12.73
2023-04-28T03:51:07.269Z,13.20
2023-04-28T03:53:45.993Z,12.25
2023-04-28T03:56:26.298Z,13.45
2023-04-28T03:59:03.933Z,12.43
2023-04-28T04:01:42.270Z,13.40
2023-04-28T04:04:24.612Z,14.15
2023-04-28T04:07:01.820Z,12.80
2023-04-28T04:09:43.298Z,12.65
2023-04-28T04:12:24.767Z,12.35
2023-04-28T04:15:01.541Z,12.38
2023-04-28T04:17:40.425Z,13.85
2023-04-28T04:20:25.855Z,12.13
2023-04-28T04:23:06.197Z,11.20
2023-04-28T04:25:45.947Z,11.88
2023-04-28T04:28:22.372Z,14.02
2023-04-28T04:31:00.992Z,12.13
2023-04-28T04:33:37.794Z,13.05
2023-04-28T04:36:24.679Z,13.45
2023-04-28T04:39:03.107Z,12.73
2023-04-28T04:41:39.738Z,14.52
2023-04-28T04:44:38.371Z,14.43
2023-04-28T04:47:19.450Z,14.40
2023-04-28T04:49:58.808Z,14.27
2023-04-28T04:52:38.791Z,14.55
2023-04-28T04:55:24.408Z,14.65
2023-04-28T05:00:57.313Z,16.95
2023-04-28T05:03:38.594Z,16.20
2023-04-28T05:06:26.180Z,15.57
2023-04-28T05:09:10.860Z,15.60
2023-04-28T05:11:57.111Z,17.10
2023-04-28T05:14:34.111Z,16.48
2023-04-28T05:17:17.601Z,17.80
2023-04-28T05:19:56.207Z,18.00
2023-04-28T05:22:38.258Z,28.58
2023-04-28T05:25:17.963Z,21.83
2023-04-28T05:27:55.361Z,34.92
2023-04-28T05:30:31.712Z,33.88
2023-04-28T05:33:07.973Z,50.15
2023-04-28T05:35:44.085Z,26.00
2023-04-28T05:38:22.766Z,18.50
2023-04-28T05:41:04.101Z,17.70
2023-04-28T05:43:41.977Z,18.60
2023-04-28T05:46:30.010Z,18.02
2023-04-28T05:49:11.276Z,17.90
2023-04-28T05:51:47.658Z,18.88
2023-04-28T05:54:25.104Z,21.23
2023-04-28T05:57:07.165Z,18.88
2023-04-28T05:59:43.085Z,18.10
2023-04-28T06:02:20.546Z,18.53
2023-04-28T06:04:59.466Z,18.83
2023-04-28T06:07:36.715Z,18.53
2023-04-28T06:10:17.101Z,17.73
2023-04-28T06:12:55.700Z,18.20
2023-04-28T06:15:32.278Z,18.45
2023-04-28T06:18:11.419Z,17.80
2023-04-28T06:20:49.992Z,17.60
2023-04-28T06:23:26.408Z,16.42
2023-04-28T06:26:02.690Z,16.10
2023-04-28T06:28:43.738Z,16.23
2023-04-28T06:31:19.166Z,16.02
2023-04-28T06:33:53.284Z,15.52
2023-04-28T06:36:31.983Z,16.85
2023-04-28T06:41:44.875Z,14.75
2023-04-28T06:44:26.644Z,16.52
2023-04-28T06:47:04.723Z,14.88
2023-04-28T06:49:44.612Z,15.20
2023-04-28T06:52:27.163Z,15.60
2023-04-28T06:55:02.037Z,15.33
2023-04-28T06:57:39.699Z,17.25
2023-04-28T07:02:55.051Z,15.88
2023-04-28T07:05:32.034Z,14.70
2023-04-28T07:08:21.038Z,15.65
2023-04-28T07:10:58.024Z,15.15
2023-04-28T07:13:37.633Z,15.73
2023-04-28T07:16:18.446Z,15.25
2023-04-28T07:18:56.397Z,16.25
2023-04-28T07:21:33.662Z,16.05
2023-04-28T07:24:09.661Z,15.45
2023-04-28T07:29:24.957Z,14.13
2023-04-28T07:32:07.531Z,14.73
2023-04-28T07:34:44.485Z,13.65
2023-04-28T07:37:22.704Z,13.57
2023-04-28T07:40:00.319Z,12.27
2023-04-28T07:42:34.384Z,11.65
2023-04-28T07:45:15.148Z,12.20
2023-04-28T07:47:49.608Z,11.23
2023-04-28T07:50:29.796Z,11.38
2023-04-28T07:53:07.278Z,11.48
2023-04-28T07:55:55.278Z,11.00
2023-04-28T07:58:38.080Z,10.93
2023-04-28T08:01:13.973Z,12.90
2023-04-28T08:03:51.370Z,11.05
2023-04-28T08:06:35.055Z,10.77
2023-04-28T08:09:05.987Z,9.80
2023-04-28T08:11:44.945Z,9.45
2023-04-28T08:14:24.908Z,9.23
2023-04-28T08:17:00.672Z,7.37
2023-04-28T08:22:38.009Z,5.35
2023-04-28T08:25:16.536Z,5.88
2023-04-28T08:27:57.593Z,5.30
2023-04-28T08:30:34.514Z,5.85
2023-04-28T08:33:12.575Z,6.03
2023-04-28T08:35:50.666Z,5.93
2023-04-28T08:38:36.613Z,6.28
2023-04-28T08:41:14.210Z,6.23
2023-04-28T08:43:56.145Z,7.20
2023-04-28T08:46:32.382Z,5.83
2023-04-28T08:49:12.954Z,5.50
2023-04-28T08:51:51.156Z,5.35
2023-04-28T08:54:29.977Z,5.78
2023-04-28T08:57:06.917Z,6.72
2023-04-28T08:59:45.034Z,5.95
2023-04-28T09:02:21.540Z,4.75
2023-04-28T09:05:03.558Z,5.70
2023-04-28T09:07:42.397Z,5.80
2023-04-28T09:10:28.037Z,5.45
2023-04-28T09:13:06.444Z,4.45
2023-04-28T09:15:45.940Z,5.65
2023-04-28T09:18:21.943Z,5.00
2023-04-28T09:21:05.872Z,6.00
2023-04-28T09:24:03.655Z,6.15
2023-04-28T09:26:57.163Z,5.78
2023-04-28T09:29:33.113Z,5.20
2023-04-28T09:32:20.421Z,6.15
2023-04-28T09:35:12.516Z,5.95
2023-04-28T09:37:51.770Z,5.55
2023-04-28T09:40:33.442Z,6.60
2023-04-28T09:43:21.983Z,6.50
2023-04-28T09:45:58.865Z,6.32
2023-04-28T09:48:38.611Z,5.90
2023-04-28T09:51:36.494Z,6.07
2023-04-28T09:54:11.328Z,6.40
2023-04-28T09:56:57.347Z,6.05
2023-04-28T09:59:41.961Z,6.18
2023-04-28T10:02:42.817Z,6.05
2023-04-28T10:05:40.806Z,6.32
2023-04-28T10:08:17.878Z,6.28
2023-04-28T10:10:58.728Z,7.47
2023-04-28T10:13:51.225Z,6.95
2023-04-28T10:16:31.150Z,7.43
2023-04-28T10:19:44.212Z,6.90
2023-04-28T10:22:43.015Z,7.60
2023-04-28T10:25:43.256Z,5.72
2023-04-28T10:28:43.649Z,6.53
2023-04-28T10:31:25.800Z,5.53
2023-04-28T10:34:05.106Z,5.60
2023-04-28T10:36:39.854Z,5.40
2023-04-28T10:39:20.006Z,5.95
2023-04-28T10:42:00.028Z,5.80
2023-04-28T10:44:48.307Z,6.37
2023-04-28T10:47:25.110Z,5.05
2023-04-28T10:50:14.056Z,5.28
2023-04-28T10:52:55.162Z,4.85
2023-04-28T10:55:37.378Z,4.30
2023-04-28T10:58:43.345Z,4.88
2023-04-28T11:01:43.379Z,4.60
2023-04-28T11:04:21.710Z,4.43
2023-04-28T11:07:19.580Z,5.38
2023-04-28T11:09:50.350Z,4.32
2023-04-28T11:12:25.540Z,5.10
2023-04-28T11:15:03.797Z,4.20
2023-04-28T11:17:43.652Z,4.25
2023-04-28T11:20:20.332Z,4.00
2023-04-28T11:23:00.408Z,4.68
2023-04-28T11:25:59.537Z,5.07
2023-04-28T11:28:38.356Z,4.30
2023-04-28T11:31:24.255Z,4.20
2023-04-28T11:34:07.542Z,4.15
2023-04-28T11:36:49.633Z,4.63
2023-04-28T11:39:31.520Z,4.40
2023-04-28T11:42:12.819Z,4.05
2023-04-28T11:44:47.994Z,4.18
2023-04-28T11:47:38.086Z,3.53
2023-04-28T11:50:37.461Z,3.45
2023-04-28T11:53:13.349Z,3.33
2023-04-28T11:55:49.183Z,3.60
2023-04-28T11:58:28.280Z,3.90
2023-04-28T12:01:15.853Z,3.10
2023-04-28T12:03:55.783Z,3.47
2023-04-28T12:06:32.122Z,3.50
2023-04-28T12:09:21.837Z,2.95
2023-04-28T12:11:59.283Z,3.38
2023-04-28T12:14:36.177Z,3.17
2023-04-28T12:17:13.606Z,3.47
2023-04-28T12:19:56.456Z,3.13
2023-04-28T12:22:33.888Z,3.28
2023-04-28T12:25:14.451Z,2.70
2023-04-28T12:27:51.148Z,2.80
2023-04-28T12:30:29.896Z,3.03
2023-04-28T12:33:06.316Z,3.60
2023-04-28T12:35:47.461Z,3.25
2023-04-28T12:38:22.721Z,3.63
2023-04-28T12:41:00.121Z,3.30
2023-04-28T12:43:35.923Z,3.05
2023-04-28T12:48:49.820Z,2.70
2023-04-28T12:51:31.774Z,3.08
2023-04-28T12:54:09.589Z,2.40
2023-04-28T12:56:49.377Z,2.70
2023-04-28T12:59:29.566Z,2.03
2023-04-28T13:02:05.267Z,2.42
2023-04-28T13:04:40.680Z,1.98
2023-04-28T13:07:18.844Z,3.27
2023-04-28T13:09:55.246Z,2.30
2023-04-28T13:12:34.058Z,2.20
2023-04-28T13:15:12.193Z,1.80
2023-04-28T13:17:50.656Z,2.10
2023-04-28T13:20:27.789Z,2.05
2023-04-28T13:23:08.555Z,2.10
2023-04-28T13:25:46.668Z,2.38
2023-04-28T13:28:21.741Z,2.35
2023-04-28T13:31:01.175Z,2.35
2023-04-28T13:33:40.179Z,2.33
2023-04-28T13:36:16.579Z,2.17
2023-04-28T13:38:55.863Z,2.70
2023-04-28T13:41:33.104Z,2.50
2023-04-28T13:44:15.892Z,2.72
2023-04-28T13:46:50.118Z,2.05
2023-04-28T13:49:38.766Z,1.97
2023-04-28T13:52:14.836Z,1.85
2023-04-28T13:54:54.774Z,1.80
2023-04-28T13:57:32.378Z,2.00
2023-04-28T14:00:14.727Z,1.80
2023-04-28T14:02:52.799Z,1.80
2023-04-28T14:05:36.066Z,2.25
2023-04-28T14:08:21.845Z,2.00
2023-04-28T14:11:08.088Z,2.10
2023-04-28T14:13:44.925Z,2.00
2023-04-28T14:16:23.954Z,2.05
2023-04-28T14:19:00.757Z,2.45
2023-04-28T14:21:38.265Z,2.33
2023-04-28T14:24:13.953Z,2.10
2023-04-28T14:26:53.422Z,2.80
2023-04-28T14:29:33.075Z,2.88
2023-04-28T14:32:14.861Z,2.60
2023-04-28T14:34:52.676Z,2.85
2023-04-28T14:37:29.382Z,1.90
2023-04-28T14:40:07.948Z,2.83
2023-04-28T14:42:48.461Z,1.90
2023-04-28T14:45:28.574Z,2.05
2023-04-28T14:48:08.045Z,2.30
2023-04-28T14:50:45.233Z,2.72
2023-04-28T14:53:25.202Z,2.10
2023-04-28T14:56:17.213Z,2.27
2023-04-28T14:58:58.945Z,2.05
2023-04-28T15:01:40.865Z,2.25
2023-04-28T15:04:17.606Z,2.20
2023-04-28T15:06:58.914Z,1.90
2023-04-28T15:09:37.432Z,2.43
2023-04-28T15:12:18.808Z,2.03
2023-04-28T15:15:01.647Z,1.92
2023-04-28T15:17:41.768Z,1.88
2023-04-28T15:20:22.336Z,2.65
2023-04-28T15:23:15.455Z,1.70
2023-04-28T15:25:55.351Z,2.23
2023-04-28T15:28:33.464Z,1.90
2023-04-28T15:31:14.015Z,1.55
2023-04-28T15:34:07.171Z,1.87
2023-04-28T15:36:44.662Z,1.50
2023-04-28T15:39:27.357Z,2.53
2023-04-28T15:42:13.276Z,1.70
2023-04-28T15:44:52.064Z,1.80
2023-04-28T15:50:47.392Z,16.27
2023-04-28T15:53:30.527Z,8.60
2023-04-28T16:48:39.715Z,2.10
2023-04-28T18:23:45.701Z,3.35
2023-04-28T18:30:28.784Z,2.97
2023-04-28T18:43:27.658Z,2.90
2023-04-28T18:47:23.342Z,3.65
2023-04-28T18:50:19.458Z,3.53
2023-04-28T19:07:25.908Z,3.70
2023-04-28T19:10:35.324Z,3.50
2023-04-28T19:17:05.789Z,3.22
2023-04-28T19:19:51.654Z,3.60
2023-04-28T19:22:53.862Z,3.60
2023-04-28T19:26:00.236Z,4.13
2023-04-28T19:29:29.942Z,3.10
2023-04-28T19:35:22.795Z,3.53
2023-04-28T19:38:23.740Z,3.50
2023-04-28T19:41:48.753Z,3.25
2023-04-28T19:44:59.444Z,3.58
2023-04-28T19:51:32.081Z,3.75
2023-04-28T19:57:22.379Z,4.72
2023-04-28T20:06:10.991Z,4.82
2023-04-28T20:09:00.977Z,5.03
2023-04-28T20:12:21.282Z,5.60
2023-04-28T20:18:53.671Z,5.63
2023-04-28T20:22:13.726Z,6.25
2023-04-28T20:25:09.425Z,5.30
2023-04-28T20:28:29.896Z,5.50
2023-04-28T20:37:53.724Z,5.97
2023-04-28T20:40:50.971Z,7.20
2023-04-28T20:43:47.614Z,6.45
2023-04-28T20:46:31.956Z,6.03
2023-04-28T20:49:35.399Z,6.40
2023-04-28T20:52:29.423Z,6.38
2023-04-28T20:55:28.741Z,6.55
2023-04-28T20:58:11.206Z,5.80
2023-04-28T21:04:17.484Z,7.18
2023-04-28T21:07:31.896Z,6.67
2023-04-28T21:10:32.939Z,6.30
2023-04-28T21:13:29.347Z,6.28
2023-04-28T21:16:10.923Z,6.45
2023-04-28T21:19:13.891Z,5.90
2023-04-28T21:22:17.119Z,6.07
2023-04-28T21:24:53.790Z,6.63
2023-04-28T21:27:40.058Z,6.20
2023-04-28T21:30:32.014Z,5.75
2023-04-28T21:33:18.769Z,5.78
2023-04-28T21:35:57.217Z,6.40
2023-04-28T21:38:46.229Z,5.50
2023-04-28T21:41:24.286Z,6.47
2023-04-28T21:44:31.924Z,5.45
2023-04-28T21:47:29.192Z,6.15
2023-04-28T21:53:17.217Z,5.78
2023-04-28T21:56:19.072Z,5.57
2023-04-28T21:59:05.004Z,6.38
2023-04-28T22:04:55.875Z,6.25
2023-04-28T22:07:56.640Z,6.23
2023-04-28T22:10:41.226Z,6.97
2023-04-28T22:13:33.266Z,6.57
2023-04-28T22:16:19.054Z,6.37
2023-04-28T22:19:06.020Z,6.93
2023-04-28T22:22:05.187Z,6.35
2023-04-28T22:27:27.845Z,6.03
2023-04-28T22:30:29.881Z,6.70
2023-04-28T22:33:24.685Z,6.22
2023-04-28T22:36:07.405Z,5.40
2023-04-28T22:39:02.454Z,5.95
2023-04-28T22:41:47.733Z,5.63
2023-04-28T22:44:41.929Z,5.30
2023-04-28T22:47:30.146Z,5.65
2023-04-28T22:50:16.442Z,5.97
2023-04-28T22:53:23.242Z,5.97
2023-04-28T22:56:08.805Z,5.80
2023-04-28T23:02:13.212Z,5.70
2023-04-28T23:04:54.524Z,5.25
2023-04-28T23:07:52.554Z,5.50
2023-04-28T23:10:36.659Z,6.13
2023-04-28T23:16:00.799Z,4.90
2023-04-28T23:18:43.095Z,6.43
2023-04-28T23:21:33.714Z,5.72
2023-04-28T23:24:31.301Z,5.75
2023-04-28T23:27:24.342Z,5.80
2023-04-28T23:30:16.517Z,6.30
2023-04-28T23:33:10.903Z,5.20
2023-04-28T23:35:56.082Z,5.28
2023-04-28T23:38:41.310Z,5.20
2023-04-28T23:41:21.465Z,5.47
2023-04-28T23:44:11.186Z,5.35
2023-04-28T23:46:57.123Z,6.13
2023-04-28T23:49:34.463Z,5.05
2023-04-28T23:52:15.903Z,5.07
2023-04-28T23:55:10.981Z,4.70
2023-04-28T23:57:54.021Z,5.27
